Latest Weather Observations for Troughton Island

IDD60801

Issued at 8:01 pm CST Thursday 11 February 2016 (issued every 30 minutes, with the page automatically refreshed every 10 minutes)

About weather observations | Map of weather stations | Latest weather observations for NT | Other Formats
Station Details ID: 001007 Name: TROUGHTON ISLAND Lat: -13.75 Lon: 126.15 Height: 6.0 m
Data from the previous 72 hours. | See also: Recent months at Troughton Island
Date/Time
CST
Temp
°C
App
Temp
°C
Dew
Point
Rel
Hum
%
Delta-T
°C
Wind Press
QNH
hPa
Press
MSL
hPa
Rain
since 9 am
mm
Dir
 
Spd
km/h
Gust
km/h
Spd
kts
Gust
kts
11/08:00pm 28.3 27.9 22.3 70 4.1 WNW 28 32 15 17 1006.8 1006.7 4.2
11/07:30pm 27.5 28.2 23.7 80 2.6 WNW 26 32 14 17 1006.6 1006.5 4.2
11/07:00pm 26.6 27.3 22.9 80 2.5 NNW 24 30 13 16 1006.6 1006.5 4.2
11/06:30pm 25.9 29.4 23.6 87 1.6 NNE 11 19 6 10 1007.4 1007.3 3.6
11/06:00pm 25.0 26.7 23.4 91 1.1 ESE 20 39 11 21 1007.9 1007.8 3.0
11/05:30pm 28.7 26.5 19.6 58 5.9 SSW 30 74 16 40 1007.4 1007.3 0.0
11/05:29pm 29.4 28.3 20.3 58 6.0 SW 26 54 14 29 1007.4 1007.3 0.0
11/05:00pm 32.1 34.2 27.1 75 3.6 W 30 35 16 19 1005.5 1005.4 0.0
11/04:30pm 31.9 34.0 27.6 78 3.1 W 32 37 17 20 1004.6 1004.5 0.0
11/04:00pm 31.7 33.5 27.2 77 3.3 W 32 37 17 20 1005.0 1004.9 0.0
11/03:30pm 31.9 34.2 27.4 77 3.3 W 30 35 16 19 1005.3 1005.2 0.0
11/03:00pm 31.9 34.0 27.1 76 3.5 W 30 35 16 19 1005.6 1005.5 0.0
11/02:30pm 32.3 35.2 27.7 76 3.4 W 28 32 15 17 1006.0 1005.9 0.0
11/02:00pm 32.1 34.6 27.1 75 3.6 W 28 32 15 17 1006.2 1006.1 0.0
11/01:30pm 32.2 35.8 27.6 76 3.4 W 24 28 13 15 1006.4 1006.3 0.0
11/01:00pm 32.2 35.8 27.6 76 3.3 W 24 26 13 14 1006.8 1006.7 0.0
11/12:30pm 32.0 36.1 27.7 78 3.1 W 22 28 12 15 1007.3 1007.2 0.0
11/12:00pm 31.7 34.6 27.6 79 3.0 WSW 28 33 15 18 1007.4 1007.3 0.0
11/11:30am 31.6 34.8 27.5 79 3.0 WSW 26 32 14 17 1007.7 1007.6 0.0
11/11:00am 31.4 34.5 26.9 77 3.2 WSW 24 30 13 16 1008.1 1008.0 0.0
11/10:30am 31.5 35.4 27.4 79 3.0 WSW 22 32 12 17 1008.4 1008.3 -
11/10:00am 30.9 34.2 26.6 78 3.1 WSW 22 28 12 15 1008.6 1008.5 -
11/09:30am 30.7 34.2 26.8 80 2.8 WSW 22 30 12 16 1008.7 1008.6 -
11/09:00am 30.6 33.1 27.0 81 2.6 WSW 28 33 15 18 1008.1 1008.0 -
11/08:30am 30.1 32.9 26.9 83 2.3 WSW 26 32 14 17 1007.9 1007.8 -
11/08:00am 29.7 31.4 26.5 83 2.3 WSW 30 35 16 19 1007.7 1007.6 -
11/07:30am 29.4 30.7 25.8 81 2.6 W 30 33 16 18 1007.0 1006.9 -
11/07:00am 29.4 30.5 24.9 77 3.2 WSW 28 33 15 18 1007.0 1006.9 -
11/06:30am 29.2 32.4 26.4 85 2.0 WSW 22 28 12 15 1007.2 1007.1 -
11/06:00am 29.4 32.4 26.2 83 2.3 SW 22 28 12 15 1007.4 1007.3 -
11/05:30am 29.7 31.0 25.2 77 3.2 SSW 28 35 15 19 1007.5 1007.4 -
11/05:00am 29.4 30.6 26.6 85 2.0 WSW 33 41 18 22 1006.7 1006.6 -
11/04:30am 29.5 30.3 26.5 84 2.1 WSW 35 43 19 23 1006.3 1006.2 -
11/04:00am 29.5 30.6 26.9 86 1.9 WSW 35 43 19 23 1006.5 1006.4 13.2
11/03:30am 29.3 31.2 27.3 89 1.4 W 32 39 17 21 1006.1 1006.0 13.2
11/03:00am 29.3 32.8 26.9 87 1.7 W 22 26 12 14 1007.0 1006.9 13.2
11/02:30am 29.3 31.8 26.5 85 2.0 W 26 30 14 16 1007.1 1007.0 13.2
11/02:00am 29.3 31.3 26.3 84 2.1 WSW 28 32 15 17 1007.2 1007.1 13.2
11/01:30am 29.4 31.2 26.0 82 2.4 WSW 28 33 15 18 1007.4 1007.3 13.2
11/01:00am 29.6 31.4 26.0 81 2.6 WSW 28 35 15 19 1007.2 1007.1 13.2
11/12:30am 29.7 30.6 25.2 77 3.2 WSW 30 37 16 20 1007.5 1007.4 13.2
11/12:00am 29.8 30.4 25.3 77 3.2 WSW 32 39 17 21 1007.5 1007.4 13.2
 
Date/Time
CST
Temp
°C
App
Temp
°C
Dew
Point
Rel
Hum
%
Delta-T
°C
Wind Press
QNH
hPa
Press
MSL
hPa
Rain
since 9 am
mm
Dir
 
Spd
km/h
Gust
km/h
Spd
kts
Gust
kts
10/11:30pm 29.8 30.3 25.5 78 3.0 WSW 33 39 18 21 1007.7 1007.6 13.2
10/11:06pm 30.3 32.1 24.9 73 3.8 WSW 24 46 13 25 1007.7 1007.6 13.2
10/11:00pm 30.0 33.7 25.1 75 3.4 WSW 15 20 8 11 1007.4 1007.3 13.2
10/10:30pm 29.6 33.3 25.1 77 3.2 W 15 17 8 9 1006.9 1006.8 13.2
10/10:00pm 29.3 31.2 23.7 72 3.9 NW 20 22 11 12 1006.8 1006.7 13.2
10/09:30pm 28.7 30.6 23.8 75 3.4 WNW 20 22 11 12 1006.7 1006.6 13.2
10/09:00pm 27.2 28.5 23.4 80 2.6 NNW 22 26 12 14 1007.4 1007.3 13.0
10/08:30pm 26.5 28.4 22.1 77 3.0 NNE 15 20 8 11 1008.4 1008.3 12.8
10/08:08pm 24.5 22.8 22.4 88 1.4 ESE 35 48 19 26 1009.9 1009.8 11.0
10/08:04pm 24.1 20.9 22.4 90 1.1 SE 43 61 23 33 1010.1 1010.0 9.4
10/08:00pm 24.3 20.5 23.1 93 0.8 SE 48 61 26 33 1010.1 1010.0 6.0
10/07:30pm 26.8 24.8 23.9 84 2.0 SE 41 59 22 32 1008.3 1008.2 0.0
10/07:23pm 27.8 27.2 23.4 77 3.0 SSE 32 44 17 24 1008.4 1008.3 0.0
10/07:00pm 30.8 32.1 26.5 78 3.1 W 32 37 17 20 1006.5 1006.4 0.0
10/06:30pm 31.2 32.5 26.7 77 3.2 WNW 33 39 18 21 1005.4 1005.3 0.0
10/06:00pm 31.5 33.1 27.2 78 3.1 W 33 39 18 21 1005.5 1005.4 0.0
10/05:30pm 31.8 32.8 26.8 75 3.6 W 35 43 19 23 1004.9 1004.8 0.0
10/05:00pm 31.9 33.7 27.1 76 3.5 W 32 37 17 20 1005.2 1005.1 0.0
10/04:30pm 32.5 34.4 27.5 75 3.6 W 33 39 18 21 1005.5 1005.4 0.0
10/04:00pm 32.6 34.7 27.1 73 4.0 W 30 35 16 19 1005.8 1005.7 0.0
10/03:30pm 32.5 34.9 27.5 75 3.6 W 30 33 16 18 1006.2 1006.1 0.0
10/03:00pm 32.8 35.8 27.8 75 3.7 W 28 32 15 17 1006.3 1006.2 0.0
10/02:30pm 32.8 35.8 27.3 73 4.0 W 26 30 14 16 1006.7 1006.6 0.0
10/02:00pm 32.4 35.4 26.7 72 4.1 W 24 28 13 15 1006.9 1006.8 0.0
10/01:30pm 33.2 36.2 26.7 68 4.7 W 24 26 13 14 1007.4 1007.3 0.0
10/01:00pm 32.9 36.8 26.9 70 4.3 W 20 24 11 13 1007.7 1007.6 0.0
10/12:30pm 32.8 37.7 28.0 76 3.5 WSW 19 20 10 11 1008.0 1007.9 0.0
10/12:00pm 32.2 37.0 27.4 76 3.5 WSW 17 19 9 10 1008.2 1008.1 0.0
10/11:30am 32.5 36.7 27.0 73 4.0 WSW 19 20 10 11 1008.4 1008.3 0.0
10/11:00am 32.1 35.7 26.4 72 4.1 WSW 20 26 11 14 1008.6 1008.5 0.0
10/10:30am 31.8 34.4 26.1 72 4.1 WSW 24 26 13 14 1008.8 1008.7 0.0
10/10:00am 32.1 35.9 26.4 72 4.1 WSW 19 24 10 13 1008.7 1008.6 0.0
10/09:30am 31.2 34.9 25.8 73 3.8 WSW 17 20 9 11 1008.7 1008.6 0.0
10/09:00am 30.8 33.4 24.9 71 4.1 SW 20 24 11 13 1008.7 1008.6 0.0
10/08:30am 30.6 34.8 24.7 71 4.1 SSW 11 13 6 7 1008.5 1008.4 0.0
10/08:00am 29.9 34.4 25.2 76 3.3 SSE 11 13 6 7 1008.2 1008.1 0.0
10/07:30am 29.1 32.4 25.1 79 2.8 SSE 17 19 9 10 1008.0 1007.9 0.0
10/07:00am 29.0 31.6 24.6 77 3.1 SSE 19 22 10 12 1007.6 1007.5 0.0
10/06:30am 29.3 30.7 24.2 74 3.5 S 24 28 13 15 1007.3 1007.2 0.0
10/06:00am 29.3 34.8 26.1 83 2.3 WSW 9 11 5 6 1007.1 1007.0 0.0
10/05:30am 29.3 33.6 25.5 80 2.7 NW 13 15 7 8 1006.5 1006.4 0.0
10/05:00am 29.1 32.9 25.3 80 2.7 NNW 15 17 8 9 1006.1 1006.0 0.0
10/04:30am 29.2 32.1 24.5 76 3.3 NW 17 19 9 10 1006.2 1006.1 0.0
10/04:00am 29.2 32.1 23.9 73 3.7 WNW 15 17 8 9 1006.5 1006.4 0.0
10/03:30am 29.0 32.0 23.4 72 3.9 WNW 13 15 7 8 1007.0 1006.9 0.0
10/03:00am 28.4 32.0 22.4 70 4.1 WSW 7 9 4 5 1007.5 1007.4 0.0
10/02:30am 28.8 31.3 22.5 68 4.3 SW 13 15 7 8 1007.9 1007.8 0.0
10/02:00am 29.0 31.3 22.7 69 4.3 SSE 15 19 8 10 1008.3 1008.2 0.0
10/01:30am 29.4 30.5 23.1 69 4.3 SSE 22 26 12 14 1008.7 1008.6 0.0
10/01:00am 29.8 33.0 26.4 82 2.4 SW 22 26 12 14 1009.2 1009.1 0.0
10/12:30am 29.9 34.3 27.3 86 1.9 SW 19 22 10 12 1009.6 1009.5 0.0
10/12:00am 29.6 34.0 27.4 88 1.6 SW 19 22 10 12 1009.9 1009.8 0.0
 
Date/Time
CST
Temp
°C
App
Temp
°C
Dew
Point
Rel
Hum
%
Delta-T
°C
Wind Press
QNH
hPa
Press
MSL
hPa
Rain
since 9 am
mm
Dir
 
Spd
km/h
Gust
km/h
Spd
kts
Gust
kts
09/11:30pm 29.8 34.5 27.2 86 1.9 W 17 19 9 10 1009.6 1009.5 0.0
09/11:00pm 29.8 34.0 27.0 85 2.0 WSW 19 22 10 12 1009.4 1009.3 0.0
09/10:30pm 29.9 33.9 27.1 85 2.0 W 20 22 11 12 1009.1 1009.0 0.0
09/10:00pm 29.9 33.8 26.9 84 2.2 WSW 20 24 11 13 1009.1 1009.0 0.0
09/09:30pm 29.8 34.2 27.4 87 1.7 W 19 22 10 12 1009.0 1008.9 0.0
09/09:00pm 30.0 34.2 27.4 86 1.9 W 20 24 11 13 1008.6 1008.5 0.0
09/08:30pm 30.0 34.2 27.4 86 1.9 WNW 20 24 11 13 1008.0 1007.9 0.0
09/08:00pm 30.1 33.6 26.9 83 2.3 WNW 22 26 12 14 1007.9 1007.8 0.0
09/07:30pm 30.4 34.8 27.4 84 2.2 WNW 19 24 10 13 1007.6 1007.5 0.0
09/07:00pm 31.0 34.9 26.9 79 3.0 WNW 20 24 11 13 1007.0 1006.9 0.0
09/06:30pm 31.5 35.5 27.0 77 3.3 WNW 20 24 11 13 1006.7 1006.6 0.0
09/06:00pm 32.0 35.6 26.5 72 4.0 WNW 20 26 11 14 1006.6 1006.5 0.0
09/05:30pm 32.0 35.6 26.5 72 4.0 WNW 20 26 11 14 1006.6 1006.5 0.0
09/05:00pm 32.4 35.3 26.0 69 4.6 W 22 26 12 14 1006.8 1006.7 0.0
09/04:30pm 32.6 36.0 26.2 69 4.6 W 20 24 11 13 1007.0 1006.9 0.0
09/04:00pm 32.7 36.9 27.4 73 3.9 W 20 24 11 13 1007.4 1007.3 0.0
09/03:30pm 32.6 36.6 27.1 73 4.0 WNW 20 22 11 12 1007.5 1007.4 0.0
09/03:00pm 32.5 37.0 27.5 75 3.6 WNW 19 20 10 11 1007.8 1007.7 0.0
09/02:30pm 32.3 36.9 27.1 74 3.8 W 17 20 9 11 1008.1 1008.0 0.0
09/02:00pm 32.7 38.0 28.1 77 3.4 W 17 20 9 11 1008.5 1008.4 0.0
09/01:30pm 32.3 37.7 27.7 76 3.4 WNW 15 19 8 10 1008.7 1008.6 0.0
09/01:00pm 32.3 37.9 28.0 78 3.1 WNW 15 19 8 10 1009.0 1008.9 0.0
09/12:30pm 31.5 36.8 27.6 80 2.8 W 15 17 8 9 1009.5 1009.4 0.0
09/12:00pm 31.7 37.9 28.2 82 2.6 W 13 17 7 9 1009.8 1009.7 0.0
09/11:30am 31.3 37.3 27.4 80 2.8 W 11 13 6 7 1009.9 1009.8 0.0
09/11:00am 31.5 37.6 27.6 80 2.8 W 11 13 6 7 1010.2 1010.1 0.0
09/10:30am 31.2 38.0 28.0 83 2.3 WSW 9 13 5 7 1010.3 1010.2 0.0
09/10:00am 30.8 37.1 27.4 82 2.5 WSW 9 11 5 6 1010.3 1010.2 0.0
09/09:30am 30.6 37.2 27.8 85 2.0 SW 9 9 5 5 1010.2 1010.1 0.0
09/09:00am 30.1 36.5 27.5 86 1.9 SW 9 11 5 6 1010.1 1010.0 0.0
09/08:30am 29.7 36.5 27.5 88 1.6 WSW 7 9 4 5 1009.9 1009.8 0.0
09/08:00am 29.1 35.9 27.3 90 1.3 WNW 6 7 3 4 1009.6 1009.5 0.0
09/07:30am 28.5 35.2 27.1 92 1.0 WNW 6 7 3 4 1009.2 1009.1 0.0
09/07:00am 28.3 34.9 26.9 92 1.0 WSW 6 6 3 3 1008.9 1008.8 0.0
09/06:30am 28.3 34.9 26.9 92 1.0 WSW 6 7 3 4 1008.4 1008.3 0.0
09/06:00am 28.3 34.7 26.9 92 1.0 SW 7 9 4 5 1008.2 1008.1 0.0
09/05:30am 28.3 34.8 26.3 89 1.4 SSW 4 6 2 3 1008.1 1008.0 0.0
09/05:00am 28.5 34.7 26.7 90 1.3 WSW 7 7 4 4 1007.9 1007.8 0.0
09/04:30am 28.5 34.7 26.7 90 1.3 SW 7 9 4 5 1007.9 1007.8 0.0
09/04:00am 28.5 35.0 27.1 92 1.0 WSW 7 7 4 4 1007.8 1007.7 0.0
09/03:30am 28.6 35.0 27.0 91 1.2 WSW 7 7 4 4 1008.0 1007.9 0.0
09/03:00am 28.6 34.9 26.8 90 1.3 WSW 7 9 4 5 1008.2 1008.1 0.0
09/02:30am 28.6 34.4 26.6 89 1.4 W 9 11 5 6 1008.5 1008.4 0.0
09/02:00am 28.5 34.5 26.3 88 1.6 W 7 9 4 5 1008.7 1008.6 0.0
09/01:30am 28.5 34.5 26.3 88 1.6 WNW 7 9 4 5 1008.9 1008.8 0.0
09/01:00am 28.4 34.2 26.0 87 1.7 WNW 7 7 4 4 1009.1 1009.0 0.0
09/12:30am 28.4 33.8 26.0 87 1.7 NNW 9 9 5 5 1009.5 1009.4 0.0
09/12:00am 29.1 35.2 26.5 86 1.9 N 7 9 4 5 1009.6 1009.5 0.0
 
Date/Time
CST
Temp
°C
App
Temp
°C
Dew
Point
Rel
Hum
%
Delta-T
°C
Wind Press
QNH
hPa
Press
MSL
hPa
Rain
since 9 am
mm
Dir
 
Spd
km/h
Gust
km/h
Spd
kts
Gust
kts
08/11:30pm 29.2 35.4 26.4 85 2.0 N 6 7 3 4 1009.7 1009.6 0.0
08/11:00pm 29.2 35.4 26.4 85 2.0 NNW 6 7 3 4 1009.6 1009.5 0.0
08/10:30pm 28.7 34.5 26.1 86 1.8 NNW 7 7 4 4 1009.3 1009.2 0.0
08/10:00pm 28.5 33.8 25.9 86 1.8 NW 9 9 5 5 1009.1 1009.0 0.0

Other Formats:

Comma delimited format used in spreadsheet applications
http://www.bom.gov.au/fwo/IDD60801/IDD60801.94102.axf

JavaScript Object Notation format (JSON) in row-major order
http://www.bom.gov.au/fwo/IDD60801/IDD60801.94102.json